Data for 01/11/2017

Time Sea-Level Adjusted Pressure Absolute Pressure Temperature Relative Humidity Dew Point   
(mb) (inHg) (mb) (inHg) (C) (F) (%) (C) (F)
00:05 1005 29.68 834 24.63 -18.1 -0.5 75 -21.6 -6.8
00:10 1005 29.68 834 24.63 -18.1 -0.6 73 -21.8 -7.3
00:15 1005 29.68 834 24.63 -18.1 -0.5 71 -22.1 -7.8
00:20 1005 29.68 834 24.63 -18.1 -0.5 71 -22.1 -7.7
00:25 1005 29.68 834 24.63 -18 -0.4 71 -22.1 -7.8
00:30 1005 29.68 834 24.63 -18 -0.3 70 -22.2 -7.9
00:35 1005 29.68 834 24.63 -18 -0.3 71 -22 -7.7
00:40 1005 29.68 834 24.63 -18 -0.4 71 -22.1 -7.8
00:45 1005 29.68 834 24.63 -18.1 -0.6 71 -22.2 -8
00:50 1005 29.68 834 24.63 -18.2 -0.7 70 -22.4 -8.3
00:55 1005 29.68 834 24.63 -18.2 -0.8 69 -22.6 -8.7
01:00 1005 29.68 834 24.63 -18.2 -0.8 68 -22.7 -8.8
01:05 1005 29.68 834 24.63 -18.2 -0.7 68 -22.8 -9
01:10 1005 29.68 834 24.63 -18.3 -0.9 68 -22.9 -9.2
01:15 1004 29.65 834 24.63 -18.3 -1 66 -23.1 -9.6
01:20 1004 29.65 834 24.63 -18.4 -1 67 -23 -9.5
01:25 1005 29.68 834 24.63 -18.4 -1.1 67 -23 -9.4
01:30 1005 29.68 834 24.63 -18.4 -1.1 68 -23 -9.4
01:35 1005 29.68 834 24.63 -18.5 -1.2 67 -23.2 -9.7
01:40 1005 29.68 834 24.63 -18.5 -1.4 66 -23.3 -10
01:45 1005 29.68 834 24.63 -18.5 -1.2 66 -23.3 -10
01:50 1005 29.68 834 24.63 -18.4 -1.2 66 -23.3 -10
01:55 1005 29.68 834 24.63 -18.4 -1 65 -23.5 -10.2
02:00 1005 29.68 834 24.63 -18.4 -1.1 65 -23.5 -10.3
02:05 1005 29.68 834 24.63 -18.4 -1.1 64 -23.6 -10.4
02:10 1005 29.68 834 24.63 -18.4 -1.1 65 -23.4 -10.1
02:15 1005 29.68 834 24.63 -18.4 -1.2 65 -23.5 -10.3
02:20 1005 29.68 834 24.63 -18.4 -1.2 66 -23.3 -10
02:25 1004 29.65 834 24.63 -18.4 -1.1 66 -23.2 -9.8
02:30 1004 29.65 833 24.6 -18.4 -1.1 67 -23.1 -9.6
02:35 1004 29.65 833 24.6 -18.3 -1 67 -23.1 -9.6
02:40 1004 29.65 833 24.6 -18.4 -1.1 66 -23.2 -9.8
02:45 1004 29.65 833 24.6 -18.5 -1.2 67 -23.2 -9.8
02:50 1004 29.65 833 24.6 -18.4 -1.2 65 -23.4 -10.1
02:55 1004 29.65 833 24.6 -18.4 -1.2 65 -23.4 -10.1
03:00 1004 29.65 834 24.63 -18.4 -1.1 66 -23.3 -9.9
03:05 1004 29.65 834 24.63 -18.4 -1.2 66 -23.3 -9.9
03:10 1005 29.68 834 24.63 -18.4 -1.1 67 -23.2 -9.7
03:15 1005 29.68 834 24.63 -18.3 -0.9 67 -23.1 -9.5
03:20 1005 29.68 834 24.63 -18.3 -0.9 66 -23.2 -9.8
03:25 1005 29.68 834 24.63 -18.3 -0.9 66 -23.2 -9.7
03:30 1005 29.68 834 24.63 -18.3 -0.9 66 -23.2 -9.8
03:35 1005 29.68 834 24.63 -18.3 -0.9 66 -23.2 -9.7
03:40 1005 29.68 834 24.63 -18.3 -0.9 66 -23.2 -9.8
03:45 1004 29.65 834 24.63 -18.3 -1 66 -23.2 -9.8
03:50 1004 29.65 834 24.63 -18.3 -1 65 -23.3 -10
03:55 1004 29.65 834 24.63 -18.4 -1.1 66 -23.3 -10
04:00 1005 29.68 834 24.63 -18.4 -1.1 65 -23.4 -10.1
04:05 1004 29.65 834 24.63 -18.5 -1.2 65 -23.5 -10.3
04:10 1004 29.65 834 24.63 -18.6 -1.4 66 -23.4 -10.1
04:15 1005 29.68 834 24.63 -18.6 -1.4 67 -23.4 -10
04:20 1005 29.68 834 24.63 -18.4 -1.2 66 -23.4 -10
04:25 1005 29.68 834 24.63 -18.4 -1.2 65 -23.4 -10.2
04:30 1005 29.68 834 24.63 -18.5 -1.2 66 -23.4 -10.1
04:35 1005 29.68 834 24.63 -18.4 -1.1 65 -23.5 -10.2
04:40 1004 29.65 834 24.63 -18.5 -1.2 65 -23.5 -10.3
04:45 1004 29.65 834 24.63 -18.5 -1.4 65 -23.5 -10.3
04:50 1004 29.65 834 24.63 -18.6 -1.4 66 -23.5 -10.3
04:55 1004 29.65 834 24.63 -18.6 -1.5 66 -23.6 -10.4
05:00 1004 29.65 834 24.63 -18.6 -1.5 66 -23.6 -10.4
05:05 1004 29.65 834 24.63 -18.6 -1.5 66 -23.5 -10.3
05:10 1004 29.65 834 24.63 -18.6 -1.4 66 -23.5 -10.2
05:15 1004 29.65 833 24.6 -18.5 -1.3 66 -23.4 -10.1
05:20 1004 29.65 833 24.6 -18.5 -1.2 66 -23.4 -10.1
05:25 1004 29.65 833 24.6 -18.4 -1.1 66 -23.3 -10
05:30 1004 29.65 833 24.6 -18.4 -1.1 66 -23.3 -10
05:35 1004 29.65 833 24.6 -18.4 -1.1 65 -23.4 -10.1
05:40 1004 29.65 833 24.6 -18.4 -1.2 66 -23.3 -10
05:45 1004 29.65 833 24.6 -18.4 -1.2 66 -23.3 -10
05:50 1004 29.65 833 24.6 -18.4 -1.1 67 -23.1 -9.6
05:55 1004 29.65 833 24.6 -18.5 -1.2 67 -23.1 -9.5
06:00 1004 29.65 833 24.6 -18.5 -1.4 68 -23 -9.5
06:05 1004 29.65 833 24.6 -18.6 -1.4 68 -23.1 -9.6
06:10 1004 29.65 833 24.6 -18.6 -1.4 69 -22.9 -9.3
06:15 1004 29.65 833 24.6 -18.5 -1.4 69 -22.8 -9.1
06:20 1004 29.65 833 24.6 -18.6 -1.4 71 -22.6 -8.6
06:25 1004 29.65 833 24.6 -18.6 -1.5 72 -22.4 -8.4
06:30 1004 29.65 833 24.6 -18.7 -1.7 73 -22.5 -8.4
06:35 1004 29.65 833 24.6 -18.8 -1.8 73 -22.4 -8.3
06:40 1004 29.65 833 24.6 -18.8 -1.8 74 -22.4 -8.3
06:45 1004 29.65 833 24.6 -18.8 -1.8 74 -22.3 -8.1
06:50 1004 29.65 833 24.6 -18.8 -1.8 75 -22.1 -7.9
06:55 1004 29.65 833 24.6 -18.8 -1.9 75 -22.2 -7.9
07:00 1004 29.65 833 24.6 -18.9 -2 75 -22.2 -8
07:05 1004 29.65 833 24.6 -18.9 -2 75 -22.2 -8
07:10 1004 29.65 833 24.6 -18.9 -2.1 74 -22.5 -8.4
07:15 1004 29.65 833 24.6 -19 -2.1 75 -22.3 -8.1
07:20 1004 29.65 833 24.6 -18.9 -2.1 75 -22.3 -8.1
07:25 1004 29.65 833 24.6 -18.9 -2 75 -22.2 -8
07:30 1004 29.65 833 24.6 -18.9 -1.9 76 -22.2 -7.9
07:35 1004 29.65 833 24.6 -18.8 -1.9 76 -22.1 -7.7
07:40 1004 29.65 834 24.63 -18.8 -1.8 76 -22 -7.6
07:45 1004 29.65 834 24.63 -18.8 -1.9 77 -21.9 -7.5
07:50 1005 29.68 834 24.63 -18.8 -1.9 77 -21.9 -7.5
07:55 1005 29.68 834 24.63 -18.8 -1.9 77 -21.9 -7.4
08:00 1005 29.68 834 24.63 -18.8 -1.9 77 -22 -7.5
08:05 1004 29.65 834 24.63 -18.9 -2 77 -22 -7.5
08:10 1004 29.65 834 24.63 -18.9 -2 77 -21.9 -7.5
08:15 1004 29.65 833 24.6 -18.8 -1.9 77 -21.9 -7.4
08:20 1004 29.65 833 24.6 -18.8 -1.8 77 -21.9 -7.4
08:25 1004 29.65 833 24.6 -18.9 -1.9 77 -22 -7.6
08:30 1004 29.65 833 24.6 -18.9 -1.9 76 -22.2 -7.9
08:35 1004 29.65 833 24.6 -18.8 -1.9 75 -22.2 -7.9
08:40 1004 29.65 833 24.6 -18.8 -1.8 75 -22.2 -8
08:45 1004 29.65 833 24.6 -18.8 -1.8 75 -22.2 -7.9
08:50 1004 29.65 833 24.6 -18.7 -1.7 74 -22.2 -8
08:55 1004 29.65 834 24.63 -18.7 -1.7 75 -22.2 -7.9
09:00 1005 29.68 834 24.63 -18.7 -1.7 74 -22.3 -8.1
09:05 1005 29.68 834 24.63 -18.7 -1.6 74 -22.2 -8
09:10 1005 29.68 834 24.63 -18.7 -1.6 74 -22.2 -8
09:15 1005 29.68 834 24.63 -18.6 -1.5 74 -22.2 -7.9
09:20 1005 29.68 834 24.63 -18.6 -1.4 74 -22.1 -7.9
09:25 1005 29.68 834 24.63 -18.5 -1.4 74 -22.1 -7.8
09:30 1005 29.68 834 24.63 -18.5 -1.2 74 -22.1 -7.7
09:35 1005 29.68 834 24.63 -18.5 -1.3 74 -22 -7.6
09:40 1005 29.68 834 24.63 -18.4 -1.2 73 -22.1 -7.8
09:45 1005 29.68 834 24.63 -18.4 -1.2 74 -21.9 -7.5
09:50 1005 29.68 834 24.63 -18.3 -1 73 -22.1 -7.8
09:55 1005 29.68 834 24.63 -18.3 -0.9 72 -22.1 -7.7
10:00 1005 29.68 834 24.63 -18.3 -0.9 72 -22.1 -7.8
10:05 1005 29.68 834 24.63 -18.3 -0.9 72 -22.3 -8.1
10:10 1005 29.68 835 24.66 -18.2 -0.8 72 -22 -7.7
10:15 1005 29.68 835 24.66 -18.1 -0.6 72 -22.1 -7.7
10:20 1006 29.71 835 24.66 -18.1 -0.5 73 -21.8 -7.3
10:25 1006 29.71 835 24.66 -17.9 -0.1 72 -21.7 -7.1
10:30 1005 29.68 835 24.66 -17.8 -0.1 73 -21.6 -6.9
10:35 1006 29.71 835 24.66 -17.8 0.1 74 -21.3 -6.4
10:40 1006 29.71 835 24.66 -17.5 0.4 75 -21 -5.8
10:45 1006 29.71 835 24.66 -17.4 0.8 76 -20.7 -5.2
10:50 1006 29.71 835 24.66 -17.1 1.2 75 -20.6 -5.1
10:55 1006 29.71 835 24.66 -16.9 1.6 74 -20.6 -5
11:00 1006 29.71 835 24.66 -16.8 1.8 74 -20.4 -4.7
11:05 1006 29.71 835 24.66 -16.6 2.1 71 -20.8 -5.4
11:10 1006 29.71 835 24.66 -16.7 2 72 -20.5 -5
11:15 1006 29.71 835 24.66 -16.6 2.2 74 -20.2 -4.4
11:20 1006 29.71 835 24.66 -16.5 2.3 73 -20.2 -4.4
11:25 1006 29.71 835 24.66 -16.4 2.4 73 -20.3 -4.5
11:30 1006 29.71 835 24.66 -16.4 2.5 71 -20.5 -4.9
11:35 1006 29.71 836 24.69 -16.3 2.7 72 -20.2 -4.4
11:40 1006 29.71 836 24.69 -16.2 2.8 73 -19.9 -3.8
11:45 1006 29.71 836 24.69 -15.9 3.5 72 -19.8 -3.7
11:50 1006 29.71 836 24.69 -16.4 2.4 75 -19.9 -3.8
11:55 1006 29.71 836 24.69 -16.1 3.1 76 -19.4 -2.9
12:00 1006 29.71 836 24.69 -15.4 4.3 71 -19.5 -3.1
12:05 1006 29.71 836 24.69 -15.8 3.6 72 -19.7 -3.4
12:10 1006 29.71 836 24.69 -16.6 2.2 75 -20 -3.9
12:15 1006 29.71 836 24.69 -16.5 2.3 75 -19.9 -3.9
12:20 1006 29.71 835 24.66 -16.1 3 75 -19.5 -3.1
12:25 1006 29.71 835 24.66 -15.9 3.5 77 -19 -2.2
12:30 1006 29.71 835 24.66 -14.8 5.3 70 -19.2 -2.6
12:35 1006 29.71 835 24.66 -15.2 4.6 72 -19.3 -2.7
12:40 1006 29.71 835 24.66 -15 4.9 70 -19.3 -2.7
12:45 1006 29.71 835 24.66 -14.8 5.4 68 -19.5 -3.1
12:50 1006 29.71 835 24.66 -14.8 5.4 68 -19.5 -3
12:55 1006 29.71 835 24.66 -15.2 4.6 69 -19.8 -3.6
13:00 1006 29.71 835 24.66 -15.8 3.5 72 -19.8 -3.6
13:05 1006 29.71 835 24.66 -15.9 3.3 73 -19.7 -3.4
13:10 1006 29.71 835 24.66 -15.6 3.9 75 -19.1 -2.3
13:15 1006 29.71 835 24.66 -14.7 5.5 66 -19.7 -3.5
13:20 1006 29.71 835 24.66 -14.6 5.7 66 -19.6 -3.3
13:25 1006 29.71 835 24.66 -14.2 6.5 68 -18.8 -1.9
13:30 1006 29.71 835 24.66 -13.9 7 68 -18.6 -1.4
13:35 1006 29.71 835 24.66 -13.9 7 67 -18.7 -1.7
13:40 1006 29.71 835 24.66 -14.1 6.6 67 -19 -2.2
13:45 1006 29.71 835 24.66 -14.4 6.1 67 -19.3 -2.8
13:50 1006 29.71 835 24.66 -14.6 5.7 67 -19.5 -3
13:55 1006 29.71 835 24.66 -15.1 4.8 70 -19.3 -2.8
14:00 1006 29.71 835 24.66 -15.1 4.9 70 -19.4 -3
14:05 1006 29.71 835 24.66 -15.2 4.6 71 -19.3 -2.8
14:10 1006 29.71 835 24.66 -15 5.1 67 -19.8 -3.6
14:15 1006 29.71 835 24.66 -15.8 3.7 73 -19.5 -3.1
14:20 1006 29.71 835 24.66 -15.6 4 73 -19.4 -3
14:25 1006 29.71 835 24.66 -15.5 4.1 71 -19.6 -3.3
14:30 1006 29.71 835 24.66 -14.7 5.5 68 -19.3 -2.7
14:35 1006 29.71 835 24.66 -13.8 7.2 64 -19.1 -2.4
14:40 1006 29.71 835 24.66 -14.3 6.3 66 -19.2 -2.6
14:45 1006 29.71 835 24.66 -14.4 6 67 -19.3 -2.8
14:50 1006 29.71 835 24.66 -14.1 6.6 65 -19.3 -2.8
14:55 1006 29.71 835 24.66 -14.2 6.5 65 -19.5 -3.1
15:00 1006 29.71 835 24.66 -14.5 5.9 66 -19.5 -3.2
15:05 1006 29.71 835 24.66 -14.3 6.3 65 -19.5 -3.1
15:10 1006 29.71 835 24.66 -14 6.9 64 -19.4 -3
15:15 1006 29.71 836 24.69 -14.1 6.6 64 -19.4 -2.9
15:20 1006 29.71 836 24.69 -13.9 7 64 -19.2 -2.6
15:25 1007 29.74 836 24.69 -14 6.9 65 -19.3 -2.7
15:30 1007 29.74 836 24.69 -14.3 6.3 66 -19.4 -2.8
15:35 1007 29.74 836 24.69 -14.4 6.1 67 -19.2 -2.6
15:40 1007 29.74 836 24.69 -14.3 6.4 66 -19.3 -2.7
15:45 1007 29.74 836 24.69 -14.2 6.4 65 -19.4 -2.9
15:50 1007 29.74 836 24.69 -14.3 6.4 67 -19.2 -2.5
15:55 1007 29.74 836 24.69 -14.1 6.6 65 -19.3 -2.8
16:00 1007 29.74 836 24.69 -14.4 6.2 66 -19.3 -2.8
16:05 1007 29.74 836 24.69 -14.1 6.6 65 -19.3 -2.8
16:10 1007 29.74 836 24.69 -13.8 7.1 63 -19.5 -3.1
16:15 1007 29.74 836 24.69 -14 6.7 65 -19.3 -2.8
16:20 1007 29.74 836 24.69 -13.8 7.1 62 -19.5 -3.2
16:25 1007 29.74 837 24.72 -13.2 8.3 61 -19.3 -2.7
16:30 1007 29.74 837 24.72 -12.8 9 60 -19 -2.2
16:35 1007 29.74 837 24.72 -12.9 8.7 60 -19.1 -2.4
16:40 1007 29.74 837 24.72 -13.2 8.3 61 -19.2 -2.5
16:45 1008 29.77 837 24.72 -13.7 7.3 64 -19.2 -2.5
16:50 1008 29.77 837 24.72 -14 6.8 64 -19.5 -3
16:55 1008 29.77 837 24.72 -14.4 6.2 64 -19.7 -3.5
17:00 1008 29.77 837 24.72 -14.6 5.7 66 -19.6 -3.3
17:05 1008 29.77 837 24.72 -14.6 5.6 66 -19.7 -3.5
17:10 1008 29.77 837 24.72 -14.8 5.3 68 -19.5 -3.2
17:15 1008 29.77 837 24.72 -15.1 4.7 68 -19.7 -3.5
17:20 1008 29.77 837 24.72 -15.2 4.6 70 -19.6 -3.3
17:25 1008 29.77 837 24.72 -15 5 67 -19.8 -3.6
17:30 1008 29.77 837 24.72 -14.9 5.3 68 -19.6 -3.3
17:35 1008 29.77 837 24.72 -14.6 5.7 67 -19.5 -3.1
17:40 1008 29.77 837 24.72 -14.6 5.8 67 -19.5 -3.1
17:45 1008 29.77 837 24.72 -14.5 5.8 67 -19.5 -3
17:50 1008 29.77 837 24.72 -14.6 5.8 66 -19.6 -3.3
17:55 1008 29.77 837 24.72 -14.8 5.4 65 -20.1 -4.1
18:00 1008 29.77 837 24.72 -15 5.1 66 -20 -3.9
18:05 1008 29.77 837 24.72 -15 5 68 -19.6 -3.3
18:10 1008 29.77 837 24.72 -15.3 4.5 69 -19.7 -3.5
18:15 1008 29.77 838 24.75 -15.7 3.8 71 -19.8 -3.7
18:20 1009 29.8 838 24.75 -15.4 4.2 69 -19.9 -3.9
18:25 1009 29.8 838 24.75 -15.4 4.3 70 -19.6 -3.3
18:30 1009 29.8 838 24.75 -15.5 4.2 71 -19.6 -3.2
18:35 1009 29.8 838 24.75 -15.8 3.6 73 -19.6 -3.3
18:40 1009 29.8 838 24.75 -15.9 3.3 75 -19.4 -2.9
18:45 1009 29.8 838 24.75 -15.8 3.5 74 -19.4 -2.9
18:50 1009 29.8 838 24.75 -15.7 3.7 74 -19.3 -2.8
18:55 1009 29.8 838 24.75 -15.8 3.5 76 -19.2 -2.6
19:00 1009 29.8 838 24.75 -15.9 3.4 76 -19.2 -2.6
19:05 1009 29.8 838 24.75 -15.7 3.7 75 -19.1 -2.5
19:10 1009 29.8 838 24.75 -15.6 3.9 74 -19.2 -2.5
19:15 1009 29.8 838 24.75 -15.6 4 75 -19.1 -2.4
19:20 1009 29.8 838 24.75 -15.5 4.1 75 -19 -2.2
19:25 1009 29.8 838 24.75 -15.3 4.4 74 -19 -2.1
19:30 1009 29.8 838 24.75 -15.1 4.9 74 -18.8 -1.8
19:35 1009 29.8 838 24.75 -15 5 72 -19 -2.1
19:40 1009 29.8 838 24.75 -15.1 4.7 73 -19 -2.2
19:45 1009 29.8 838 24.75 -15.2 4.6 72 -19.2 -2.6
19:50 1009 29.8 838 24.75 -15.4 4.2 74 -19.1 -2.4
19:55 1009 29.8 838 24.75 -15.5 4.2 74 -19.1 -2.5
20:00 1009 29.8 839 24.78 -15.4 4.3 73 -19.3 -2.7
20:05 1009 29.8 839 24.78 -15.3 4.4 73 -19.2 -2.5
20:10 1009 29.8 839 24.78 -15.1 4.9 73 -18.8 -1.9
20:15 1009 29.8 839 24.78 -15 5.1 72 -18.9 -2
20:20 1009 29.8 839 24.78 -15.2 4.6 74 -18.8 -1.9
20:25 1009 29.8 839 24.78 -15.3 4.5 75 -18.8 -1.8
20:30 1010 29.83 839 24.78 -15.3 4.5 76 -18.6 -1.4
20:35 1010 29.83 839 24.78 -15.3 4.5 75 -18.8 -1.8
20:40 1010 29.83 839 24.78 -15.4 4.2 75 -18.9 -2
20:45 1010 29.83 839 24.78 -15.4 4.3 76 -18.7 -1.6
20:50 1010 29.83 839 24.78 -15.2 4.6 77 -18.4 -1.2
20:55 1010 29.83 839 24.78 -15.1 4.7 77 -18.3 -0.9
21:00 1010 29.83 839 24.78 -15.2 4.7 78 -18.3 -0.9
21:05 1010 29.83 839 24.78 -15.2 4.7 78 -18.3 -0.9
21:10 1010 29.83 839 24.78 -15.1 4.8 77 -18.3 -1
21:15 1010 29.83 839 24.78 -15.1 4.9 77 -18.2 -0.8
21:20 1010 29.83 839 24.78 -15 5 77 -18.2 -0.8
21:25 1010 29.83 839 24.78 -15 5 77 -18.1 -0.7
21:30 1010 29.83 839 24.78 -14.9 5.2 78 -18 -0.4
21:35 1010 29.83 839 24.78 -14.9 5.2 77 -18.1 -0.5
21:40 1010 29.83 839 24.78 -14.9 5.1 77 -18.1 -0.5
21:45 1010 29.83 840 24.81 -14.9 5.2 78 -17.9 -0.1
21:50 1010 29.83 840 24.81 -14.8 5.4 78 -17.8 -0.1
21:55 1010 29.83 840 24.81 -14.9 5.3 78 -17.9 -0.3
22:00 1011 29.85 840 24.81 -14.9 5.1 79 -17.8 -0.1
22:05 1011 29.85 840 24.81 -14.8 5.3 79 -17.7 0.1
22:10 1011 29.85 840 24.81 -14.7 5.5 79 -17.6 0.3
22:15 1011 29.85 840 24.81 -14.6 5.7 79 -17.5 0.5
22:20 1011 29.85 840 24.81 -14.5 6 79 -17.4 0.6
22:25 1011 29.85 840 24.81 -14.4 6 79 -17.4 0.7
22:30 1011 29.85 840 24.81 -14.6 5.8 80 -17.3 0.8
22:35 1011 29.85 840 24.81 -14.7 5.6 81 -17.3 0.9
22:40 1011 29.85 840 24.81 -14.7 5.5 81 -17.3 0.9
22:45 1011 29.85 841 24.83 -14.8 5.4 81 -17.3 0.8
22:50 1011 29.85 840 24.81 -14.7 5.5 80 -17.4 0.7
22:55 1011 29.85 840 24.81 -14.8 5.4 81 -17.4 0.7
23:00 1011 29.85 841 24.83 -14.7 5.5 81 -17.2 1
23:05 1012 29.88 841 24.83 -14.6 5.6 81 -17.3 0.9
23:10 1012 29.88 841 24.83 -14.7 5.6 81 -17.2 1.1
23:15 1012 29.88 841 24.83 -14.6 5.7 81 -17.2 1.1
23:20 1012 29.88 841 24.83 -14.6 5.8 81 -17.1 1.2
23:25 1012 29.88 841 24.83 -14.5 6 80 -17.2 1.1
23:30 1012 29.88 841 24.83 -14.4 6 81 -17 1.4
23:35 1012 29.88 841 24.83 -14.4 6.2 80 -17.1 1.3
23:40 1012 29.88 841 24.83 -14.3 6.2 80 -17 1.3
23:45 1012 29.88 841 24.83 -14.3 6.4 81 -16.8 1.7
23:50 1012 29.88 841 24.83 -14.1 6.6 81 -16.7 2
23:55 1012 29.88 841 24.83 -14 6.8 81 -16.7 2
24:00 1012 29.88 842 24.86 -14 6.7 81 -16.7 2